Elizabeth City, NC

8:44 AM EDT on July 04, 2015 (GMT -0400)
APRSWXNET | | Change Station
CLOSE
Current Station
Personal Weather Station
Location: Elizabeth City, NC
Elevation: 9 ft
Nearby Weather Stations

Elev 9 ft 36.29 °N, 76.25 °W | Updated 14 minutes ago

Overcast
Overcast
75 °F
Feels Like 72 °F
N
4
Wind Variable Wind from WNW
Gusts 5.0 mph

Today
High -- | Low -- °F
--% Chance of Precip.
Yesterday
High -- | Low -- °F
Precip. -- in
5:52 AM 8:26 PM
Waning Gibbous, 92% visible
Pressure 29.93 in
Visibility 10.0 miles
Clouds Overcast 1100 ft
Heat Index 72 °F
Dew Point 75 °F
Humidity 100%
Rainfall in
Snow Depth Not available.
UV 1 out of 12
Pollen 2.80 out of 12
Air Quality Not available.
Flu Activity Not available.
METAR KECG 041154Z AUTO 24011KT 10SM OVC011 24/22 A2993 RMK AO2 SLP134 70233 T02390217 10244 20228 53019

More Conditions Fewer Conditions

Pressure 29.93 in
Visibility 10.0 miles
Clouds Overcast 1100 ft
Heat Index 72 °F
Dew Point 75 °F
Humidity 100%
Rainfall in
Snow Depth Not available.
UV 1 out of 12
Pollen 2.80 out of 12
Air Quality Not available.
Flu Activity Not available.
METAR KECG 041154Z AUTO 24011KT 10SM OVC011 24/22 A2993 RMK AO2 SLP134 70233 T02390217 10244 20228 53019

More Conditions Fewer Conditions

10-Day Weather Forecast

×

Almanac

Astronomy

Jul. 04, 2015 Rise Set
Actual Time
Civil Twilight
Nautical Twilight
Astronomical Twilight
Moon
Length of Visible Light
Length of Day
Tomorrow will be .
, % of the Moon is Illuminated

Today's Extremes

State Highs State Lows

Community

WunderPhotos

Upload Photos

1,834,948 photos uploaded!

WunderBlogs® & News

Nearby

Air Quality

  Air Quality AQ Index Pollutant
Not available.

Snow Depth

Station Depth Elevation

Earthquake Activity

City Distance Mag. Time & Date
Minimum magnitude displayed is 2.5.

Coastal Water Temperatures

Place Temperature

Stations

Nearby Weather Stations

Station Location Temp. Windchill Dew Point Humidity Wind Precip. Elev Updated Type